createdAt,value
2019-01-27T00:00:00.471Z,3.63
2019-01-27T00:00:04.819Z,3.64
2019-01-27T00:00:09.115Z,3.63
2019-01-27T00:00:13.408Z,3.63
2019-01-27T00:00:17.712Z,3.63
2019-01-27T00:00:22.002Z,3.64
2019-01-27T00:00:26.289Z,3.62
2019-01-27T00:00:30.595Z,3.64
2019-01-27T00:00:34.882Z,3.63
2019-01-27T00:00:39.173Z,3.64
2019-01-27T00:00:43.462Z,3.63
2019-01-27T00:00:47.768Z,3.64
2019-01-27T00:00:52.064Z,3.64
2019-01-27T00:00:56.358Z,3.63
2019-01-27T00:01:00.643Z,3.64
2019-01-27T00:01:04.938Z,3.64
2019-01-27T00:01:09.233Z,3.63
2019-01-27T00:01:13.519Z,3.64
2019-01-27T00:01:17.810Z,3.63
2019-01-27T00:01:22.123Z,3.63
2019-01-27T00:01:26.410Z,3.63
2019-01-27T00:01:30.702Z,3.63
2019-01-27T00:01:34.986Z,3.64
2019-01-27T00:01:39.274Z,3.65
2019-01-27T00:01:43.564Z,3.65
2019-01-27T00:01:47.854Z,3.65
2019-01-27T00:01:52.141Z,3.65
2019-01-27T00:01:56.327Z,3.65
2019-01-27T00:02:00.612Z,3.65
2019-01-27T00:02:04.852Z,3.66
2019-01-27T00:02:08.954Z,3.65
2019-01-27T00:02:13.255Z,3.65
2019-01-27T00:02:17.544Z,3.66
2019-01-27T00:02:21.872Z,3.66
2019-01-27T00:02:26.158Z,3.65
2019-01-27T00:02:30.448Z,3.65
2019-01-27T00:02:34.741Z,3.66
2019-01-27T00:02:39.032Z,3.66
2019-01-27T00:02:43.254Z,3.66
2019-01-27T00:02:47.546Z,3.66
2019-01-27T00:02:51.838Z,3.65
2019-01-27T00:02:56.125Z,3.66
2019-01-27T00:03:00.419Z,3.66
2019-01-27T00:03:04.721Z,3.66
2019-01-27T00:03:09.005Z,3.66
2019-01-27T00:03:13.299Z,3.67
2019-01-27T00:03:17.588Z,3.66
2019-01-27T00:03:21.879Z,3.66
2019-01-27T00:03:25.977Z,3.66
2019-01-27T00:03:30.267Z,3.67
2019-01-27T00:03:34.647Z,3.66
2019-01-27T00:03:38.930Z,3.66
2019-01-27T00:03:43.122Z,3.67
2019-01-27T00:03:47.414Z,3.67
2019-01-27T00:03:51.717Z,3.66
2019-01-27T00:03:56.008Z,3.67
2019-01-27T00:04:00.306Z,3.66
2019-01-27T00:04:04.510Z,3.67
2019-01-27T00:04:08.707Z,3.67
2019-01-27T00:04:12.805Z,3.67
2019-01-27T00:04:17.093Z,3.67
2019-01-27T00:04:22.422Z,3.67
2019-01-27T00:04:26.668Z,3.68
2019-01-27T00:04:30.961Z,3.68
2019-01-27T00:04:35.260Z,3.68
2019-01-27T00:04:39.555Z,3.67
2019-01-27T00:04:43.847Z,3.67
2019-01-27T00:04:48.139Z,3.67
2019-01-27T00:04:52.447Z,3.68
2019-01-27T00:04:56.762Z,3.67
2019-01-27T00:05:01.067Z,3.67
2019-01-27T00:05:05.562Z,3.68
2019-01-27T00:05:09.848Z,3.68
2019-01-27T00:05:14.135Z,3.67
2019-01-27T00:05:18.422Z,3.68
2019-01-27T00:05:22.721Z,3.67
2019-01-27T00:05:27.013Z,3.68
2019-01-27T00:05:31.311Z,3.68
2019-01-27T00:05:35.613Z,3.68
2019-01-27T00:05:39.922Z,3.69
2019-01-27T00:05:44.211Z,3.68
2019-01-27T00:05:48.400Z,3.68
2019-01-27T00:05:52.590Z,3.68
2019-01-27T00:05:56.885Z,3.67
2019-01-27T00:06:01.179Z,3.67
2019-01-27T00:06:05.468Z,3.67
2019-01-27T00:06:09.763Z,3.67
2019-01-27T00:06:14.059Z,3.67
2019-01-27T00:06:18.355Z,3.68
2019-01-27T00:06:22.553Z,3.68
2019-01-27T00:06:26.859Z,3.68
2019-01-27T00:06:31.167Z,3.67
2019-01-27T00:06:35.472Z,3.67
2019-01-27T00:06:39.767Z,3.68
2019-01-27T00:06:44.059Z,3.67
2019-01-27T00:06:48.354Z,3.67
2019-01-27T00:06:52.543Z,3.67
2019-01-27T00:06:56.831Z,3.67
2019-01-27T00:07:01.123Z,3.67
2019-01-27T00:07:05.464Z,3.66
2019-01-27T00:07:09.665Z,3.68
2019-01-27T00:07:13.963Z,3.66
2019-01-27T00:07:18.156Z,3.66
2019-01-27T00:07:22.346Z,3.67
2019-01-27T00:07:26.632Z,3.67
2019-01-27T00:07:30.925Z,3.65
2019-01-27T00:07:35.215Z,3.65
2019-01-27T00:07:39.503Z,3.64
2019-01-27T00:07:43.794Z,3.66
2019-01-27T00:07:48.021Z,3.65
2019-01-27T00:07:52.324Z,3.65
2019-01-27T00:07:56.613Z,3.67
2019-01-27T00:08:00.802Z,3.66
2019-01-27T00:08:05.086Z,3.65
2019-01-27T00:08:16.484Z,3.66
2019-01-27T00:08:20.780Z,3.66
2019-01-27T00:08:25.080Z,3.66
2019-01-27T00:08:29.371Z,3.65
2019-01-27T00:08:33.657Z,3.66
2019-01-27T00:08:37.961Z,3.65
2019-01-27T00:08:42.256Z,3.64
2019-01-27T00:08:46.486Z,3.66
2019-01-27T00:08:50.819Z,3.66
2019-01-27T00:08:55.020Z,3.65
2019-01-27T00:08:59.323Z,3.66
2019-01-27T00:09:03.621Z,3.66
2019-01-27T00:09:07.917Z,3.66
2019-01-27T00:09:12.206Z,3.67
2019-01-27T00:09:16.496Z,3.66
2019-01-27T00:09:20.817Z,3.65
2019-01-27T00:09:25.107Z,3.65
2019-01-27T00:09:29.296Z,3.66
2019-01-27T00:09:33.595Z,3.66
2019-01-27T00:09:37.894Z,3.67
2019-01-27T00:09:42.189Z,3.66
2019-01-27T00:09:46.486Z,3.66
2019-01-27T00:09:50.807Z,3.65
2019-01-27T00:09:55.008Z,3.66
2019-01-27T00:09:59.310Z,3.65
2019-01-27T00:10:03.602Z,3.66
2019-01-27T00:10:07.890Z,3.66
2019-01-27T00:10:12.088Z,3.65
2019-01-27T00:10:16.375Z,3.64
2019-01-27T00:10:20.568Z,3.66
2019-01-27T00:10:24.857Z,3.66
2019-01-27T00:10:29.090Z,3.65
2019-01-27T00:10:33.380Z,3.64
2019-01-27T00:10:37.705Z,3.66
2019-01-27T00:10:41.995Z,3.66
2019-01-27T00:10:46.291Z,3.65
2019-01-27T00:10:50.581Z,3.65
2019-01-27T00:10:54.909Z,3.64
2019-01-27T00:10:59.100Z,3.65
2019-01-27T00:11:03.399Z,3.65
2019-01-27T00:11:07.689Z,3.66
2019-01-27T00:11:11.988Z,3.65
2019-01-27T00:11:16.272Z,3.66
2019-01-27T00:11:20.472Z,3.64
2019-01-27T00:11:24.777Z,3.64
2019-01-27T00:11:29.066Z,3.65
2019-01-27T00:11:33.400Z,3.64
2019-01-27T00:11:37.688Z,3.64
2019-01-27T00:11:41.893Z,3.66
2019-01-27T00:11:46.181Z,3.64
2019-01-27T00:11:50.519Z,3.63
2019-01-27T00:11:54.813Z,3.64
2019-01-27T00:11:59.008Z,3.63
2019-01-27T00:12:03.395Z,3.64
2019-01-27T00:12:07.686Z,3.64
2019-01-27T00:12:11.881Z,3.65
2019-01-27T00:12:16.176Z,3.65
2019-01-27T00:12:20.468Z,3.63
2019-01-27T00:12:24.576Z,3.63
2019-01-27T00:12:28.670Z,3.63
2019-01-27T00:12:32.959Z,3.63
2019-01-27T00:12:37.248Z,3.63
2019-01-27T00:12:41.542Z,3.63
2019-01-27T00:13:17.736Z,3.64
2019-01-27T00:13:22.026Z,3.65
2019-01-27T00:13:26.315Z,3.63
2019-01-27T00:13:30.608Z,3.63
2019-01-27T00:13:34.893Z,3.64
2019-01-27T00:13:39.184Z,3.63
2019-01-27T00:13:43.512Z,3.63
2019-01-27T00:13:47.716Z,3.64
2019-01-27T00:13:52.003Z,3.63
2019-01-27T00:13:56.292Z,3.64
2019-01-27T00:14:00.584Z,3.64
2019-01-27T00:14:04.877Z,3.63
2019-01-27T00:14:09.074Z,3.63
2019-01-27T00:14:13.373Z,3.63
2019-01-27T00:14:17.667Z,3.63
2019-01-27T00:14:21.954Z,3.64
2019-01-27T00:14:26.244Z,3.63
2019-01-27T00:14:30.535Z,3.62
2019-01-27T00:14:34.828Z,3.63
2019-01-27T00:14:38.922Z,3.63
2019-01-27T00:14:43.210Z,3.63
2019-01-27T00:14:47.499Z,3.63
2019-01-27T00:14:51.789Z,3.63
2019-01-27T00:14:55.984Z,3.63
2019-01-27T00:15:00.284Z,3.63
2019-01-27T00:15:04.589Z,3.63
2019-01-27T00:15:10.293Z,3.63
2019-01-27T00:15:14.679Z,3.62
2019-01-27T00:15:18.965Z,3.63
2019-01-27T00:15:23.257Z,3.63
2019-01-27T00:15:27.560Z,3.63
2019-01-27T00:15:31.852Z,3.63
2019-01-27T00:15:36.144Z,3.62
2019-01-27T00:15:40.438Z,3.62
2019-01-27T00:15:44.726Z,3.62
2019-01-27T00:15:48.920Z,3.62
2019-01-27T00:15:53.213Z,3.61
2019-01-27T00:15:57.519Z,3.63
2019-01-27T00:16:01.805Z,3.61
2019-01-27T00:16:06.105Z,3.62
2019-01-27T00:16:10.403Z,3.63
2019-01-27T00:16:14.698Z,3.61
2019-01-27T00:16:18.984Z,3.63
2019-01-27T00:16:23.270Z,3.62
2019-01-27T00:16:27.601Z,3.62
2019-01-27T00:16:31.889Z,3.61
2019-01-27T00:16:36.189Z,3.61
2019-01-27T00:16:40.509Z,3.61
2019-01-27T00:16:44.610Z,3.61
2019-01-27T00:16:48.908Z,3.61
2019-01-27T00:16:53.195Z,3.61
2019-01-27T00:16:57.491Z,3.61
2019-01-27T00:17:01.784Z,3.61
2019-01-27T00:17:05.992Z,3.61
2019-01-27T00:17:10.280Z,3.61
2019-01-27T00:17:14.575Z,3.61
2019-01-27T00:17:18.858Z,3.61
2019-01-27T00:17:23.165Z,3.6
2019-01-27T00:17:27.458Z,3.61
2019-01-27T00:17:31.747Z,3.62
2019-01-27T00:17:36.037Z,3.61
2019-01-27T00:17:40.326Z,3.6
2019-01-27T00:17:44.615Z,3.6
2019-01-27T00:17:48.913Z,3.61
2019-01-27T00:17:53.206Z,3.6
2019-01-27T00:17:57.506Z,3.6
2019-01-27T00:18:01.791Z,3.6
2019-01-27T00:18:06.094Z,3.6
2019-01-27T00:18:10.415Z,3.59
2019-01-27T00:18:14.710Z,3.59
2019-01-27T00:18:19.002Z,3.59
2019-01-27T00:18:23.292Z,3.59
2019-01-27T00:18:27.593Z,3.59
2019-01-27T00:18:31.898Z,3.59
2019-01-27T00:18:36.188Z,3.59
2019-01-27T00:18:40.493Z,3.58
2019-01-27T00:18:44.694Z,3.59
2019-01-27T00:18:48.984Z,3.58
2019-01-27T00:18:53.276Z,3.58
2019-01-27T00:18:57.522Z,3.58
2019-01-27T00:19:01.848Z,3.58
2019-01-27T00:19:06.138Z,3.57
2019-01-27T00:19:10.432Z,3.58
2019-01-27T00:19:14.726Z,3.58
2019-01-27T00:19:19.010Z,3.58
2019-01-27T00:19:23.204Z,3.58
2019-01-27T00:19:27.502Z,3.57
2019-01-27T00:19:31.697Z,3.58
2019-01-27T00:19:35.996Z,3.57
2019-01-27T00:19:40.290Z,3.57
2019-01-27T00:19:44.492Z,3.57
2019-01-27T00:19:48.782Z,3.57
2019-01-27T00:19:53.069Z,3.56
2019-01-27T00:19:57.356Z,3.57
2019-01-27T00:20:01.636Z,3.56
2019-01-27T00:20:05.921Z,3.57
2019-01-27T00:20:10.227Z,3.56
2019-01-27T00:20:14.513Z,3.56
2019-01-27T00:20:18.701Z,3.55
2019-01-27T00:20:22.990Z,3.56
2019-01-27T00:20:27.272Z,3.56
2019-01-27T00:20:31.562Z,3.56
2019-01-27T00:20:35.847Z,3.55
2019-01-27T00:20:40.141Z,3.56
2019-01-27T00:20:44.442Z,3.55
2019-01-27T00:20:48.726Z,3.55
2019-01-27T00:20:53.014Z,3.55
2019-01-27T00:20:57.301Z,3.55
2019-01-27T00:21:01.592Z,3.56
2019-01-27T00:21:06.111Z,3.55
2019-01-27T00:21:10.411Z,3.55
2019-01-27T00:21:14.714Z,3.56
2019-01-27T00:21:19.005Z,3.55
2019-01-27T00:21:23.287Z,3.55
2019-01-27T00:21:27.576Z,3.55
2019-01-27T00:21:31.864Z,3.56
2019-01-27T00:21:36.151Z,3.55
2019-01-27T00:21:40.438Z,3.55
2019-01-27T00:21:44.632Z,3.54
2019-01-27T00:21:48.923Z,3.55
2019-01-27T00:21:53.213Z,3.55
2019-01-27T00:21:57.306Z,3.55
2019-01-27T00:22:01.503Z,3.56
2019-01-27T00:22:05.805Z,3.56
2019-01-27T00:22:10.090Z,3.56
2019-01-27T00:22:14.378Z,3.56
2019-01-27T00:22:19.681Z,3.55
2019-01-27T00:22:23.971Z,3.55
2019-01-27T00:22:28.284Z,3.56
2019-01-27T00:22:32.572Z,3.56
2019-01-27T00:22:36.858Z,3.55
2019-01-27T00:22:41.152Z,3.56
2019-01-27T00:22:45.254Z,3.55
2019-01-27T00:22:49.544Z,3.54
2019-01-27T00:22:53.836Z,3.55
2019-01-27T00:22:58.118Z,3.55
2019-01-27T00:23:02.424Z,3.54
2019-01-27T00:23:06.720Z,3.55
2019-01-27T00:23:11.010Z,3.56
2019-01-27T00:23:15.336Z,3.54
2019-01-27T00:23:19.663Z,3.55
2019-01-27T00:23:23.949Z,3.55
2019-01-27T00:23:28.284Z,3.55
2019-01-27T00:23:32.578Z,3.54
2019-01-27T00:23:36.869Z,3.55
2019-01-27T00:23:41.158Z,3.55
2019-01-27T00:23:45.439Z,3.54
2019-01-27T00:23:49.729Z,3.55
2019-01-27T00:23:53.932Z,3.55
2019-01-27T00:23:58.115Z,3.54
2019-01-27T00:24:02.414Z,3.54
2019-01-27T00:24:06.709Z,3.54
2019-01-27T00:24:10.997Z,3.55
2019-01-27T00:24:15.187Z,3.55
2019-01-27T00:24:19.472Z,3.54
2019-01-27T00:24:23.659Z,3.54
2019-01-27T00:24:27.763Z,3.55
2019-01-27T00:24:32.063Z,3.54
2019-01-27T00:24:36.357Z,3.54
2019-01-27T00:24:40.639Z,3.54
2019-01-27T00:24:44.922Z,3.54
2019-01-27T00:24:49.126Z,3.54
2019-01-27T00:24:53.410Z,3.54
2019-01-27T00:24:57.701Z,3.54
2019-01-27T00:25:01.892Z,3.54
2019-01-27T00:25:06.189Z,3.54
2019-01-27T00:25:10.525Z,3.54
2019-01-27T00:25:14.811Z,3.53
2019-01-27T00:25:19.115Z,3.54
2019-01-27T00:25:23.433Z,3.53
2019-01-27T00:25:27.721Z,3.53
2019-01-27T00:25:32.013Z,3.53
2019-01-27T00:25:36.310Z,3.52
2019-01-27T00:25:40.598Z,3.53
2019-01-27T00:25:44.880Z,3.52
2019-01-27T00:25:49.170Z,3.52
2019-01-27T00:25:53.499Z,3.52
2019-01-27T00:25:57.798Z,3.52
2019-01-27T00:26:02.085Z,3.52
2019-01-27T00:26:06.275Z,3.51
2019-01-27T00:26:10.558Z,3.53
2019-01-27T00:26:14.849Z,3.52
2019-01-27T00:26:19.131Z,3.52
2019-01-27T00:26:23.330Z,3.52
2019-01-27T00:26:27.620Z,3.52
2019-01-27T00:26:31.927Z,3.52
2019-01-27T00:26:36.214Z,3.51
2019-01-27T00:26:40.499Z,3.52
2019-01-27T00:26:44.785Z,3.51
2019-01-27T00:26:48.978Z,3.51
2019-01-27T00:26:53.266Z,3.5
2019-01-27T00:26:57.555Z,3.51
2019-01-27T00:27:01.848Z,3.5
2019-01-27T00:27:06.188Z,3.51
2019-01-27T00:27:10.380Z,3.52
2019-01-27T00:27:14.666Z,3.51
2019-01-27T00:27:18.949Z,3.5
2019-01-27T00:27:23.243Z,3.5
2019-01-27T00:27:27.533Z,3.51
2019-01-27T00:27:31.724Z,3.5
2019-01-27T00:27:36.015Z,3.51
2019-01-27T00:27:40.308Z,3.49
2019-01-27T00:27:44.604Z,3.49
2019-01-27T00:27:48.895Z,3.49
2019-01-27T00:27:53.186Z,3.49
2019-01-27T00:27:57.475Z,3.49
2019-01-27T00:28:01.769Z,3.49
2019-01-27T00:28:06.057Z,3.49
2019-01-27T00:28:10.245Z,3.49
2019-01-27T00:28:14.537Z,3.5
2019-01-27T00:28:18.824Z,3.5
2019-01-27T00:28:23.114Z,3.49
2019-01-27T00:28:27.412Z,3.49
2019-01-27T00:28:31.605Z,3.49
2019-01-27T00:28:35.902Z,3.49
2019-01-27T00:28:40.189Z,3.5
2019-01-27T00:28:44.474Z,3.49
2019-01-27T00:28:48.768Z,3.49
2019-01-27T00:28:52.971Z,3.49
2019-01-27T00:28:57.166Z,3.49
2019-01-27T00:29:01.448Z,3.48
2019-01-27T00:29:05.732Z,3.49
2019-01-27T00:29:09.925Z,3.49
2019-01-27T00:29:14.211Z,3.48
2019-01-27T00:29:18.498Z,3.48
2019-01-27T00:29:22.788Z,3.49
2019-01-27T00:29:27.084Z,3.49
2019-01-27T00:29:31.180Z,3.49
2019-01-27T00:29:35.368Z,3.49
2019-01-27T00:29:39.561Z,3.48
2019-01-27T00:29:43.851Z,3.47
2019-01-27T00:29:48.140Z,3.47
2019-01-27T00:29:52.332Z,3.49
2019-01-27T00:29:56.620Z,3.48
2019-01-27T00:30:00.956Z,3.48
2019-01-27T00:30:05.159Z,3.48
2019-01-27T00:30:09.444Z,3.48
2019-01-27T00:30:13.764Z,3.48
2019-01-27T00:30:18.050Z,3.48
2019-01-27T00:30:22.341Z,3.48
2019-01-27T00:30:26.627Z,3.48
2019-01-27T00:30:30.909Z,3.48
2019-01-27T00:30:35.203Z,3.48
2019-01-27T00:30:39.486Z,3.48
2019-01-27T00:30:43.770Z,3.48
2019-01-27T00:30:47.970Z,3.48
2019-01-27T00:30:52.299Z,3.48
2019-01-27T00:30:56.395Z,3.49
2019-01-27T00:31:00.589Z,3.48
2019-01-27T00:31:04.980Z,3.48
2019-01-27T00:31:09.279Z,3.48
2019-01-27T00:31:13.571Z,3.47
2019-01-27T00:31:17.861Z,3.47
2019-01-27T00:31:22.148Z,3.47
2019-01-27T00:31:26.433Z,3.47
2019-01-27T00:31:30.644Z,3.48
2019-01-27T00:31:34.929Z,3.47
2019-01-27T00:31:39.215Z,3.47
2019-01-27T00:31:43.509Z,3.46
2019-01-27T00:31:47.815Z,3.47
2019-01-27T00:31:52.102Z,3.46
2019-01-27T00:31:56.301Z,3.46
2019-01-27T00:32:00.492Z,3.45
2019-01-27T00:32:04.829Z,3.47
2019-01-27T00:32:09.113Z,3.45
2019-01-27T00:32:13.402Z,3.46
2019-01-27T00:32:17.722Z,3.45
2019-01-27T00:32:22.009Z,3.45
2019-01-27T00:32:26.305Z,3.45
2019-01-27T00:32:30.602Z,3.46
2019-01-27T00:32:34.906Z,3.45
2019-01-27T00:32:39.123Z,3.45
2019-01-27T00:32:43.410Z,3.45
2019-01-27T00:32:47.701Z,3.45
2019-01-27T00:32:51.889Z,3.45
2019-01-27T00:32:56.172Z,3.44
2019-01-27T00:33:00.501Z,3.45
2019-01-27T00:33:04.786Z,3.44
2019-01-27T00:33:09.072Z,3.44
2019-01-27T00:33:13.356Z,3.44
2019-01-27T00:33:17.545Z,3.44
2019-01-27T00:33:21.739Z,3.44
2019-01-27T00:33:26.074Z,3.45
2019-01-27T00:33:30.282Z,3.44
2019-01-27T00:33:34.570Z,3.44
2019-01-27T00:33:38.866Z,3.44
2019-01-27T00:33:43.205Z,3.43
2019-01-27T00:33:47.497Z,3.44
2019-01-27T00:33:51.787Z,3.42
2019-01-27T00:33:56.095Z,3.43
2019-01-27T00:34:00.382Z,3.42
2019-01-27T00:34:04.674Z,3.42
2019-01-27T00:34:08.961Z,3.43
2019-01-27T00:34:13.189Z,3.42
2019-01-27T00:34:17.374Z,3.42
2019-01-27T00:34:21.658Z,3.42
2019-01-27T00:34:25.955Z,3.42
2019-01-27T00:34:30.245Z,3.41
2019-01-27T00:34:34.530Z,3.4
2019-01-27T00:34:38.721Z,3.4
2019-01-27T00:34:43.031Z,3.41
2019-01-27T00:34:47.361Z,3.4
2019-01-27T00:34:51.565Z,3.39
2019-01-27T00:34:55.849Z,3.41
2019-01-27T00:35:00.165Z,3.4
2019-01-27T00:35:04.515Z,3.4
2019-01-27T00:35:08.801Z,3.4
2019-01-27T00:35:13.122Z,3.39
2019-01-27T00:35:17.311Z,3.39
2019-01-27T00:35:21.655Z,3.39
2019-01-27T00:35:25.941Z,3.38
2019-01-27T00:35:30.132Z,3.39
2019-01-27T00:35:34.450Z,3.39
2019-01-27T00:35:38.643Z,3.39
2019-01-27T00:35:42.927Z,3.39
2019-01-27T00:35:47.264Z,3.39
2019-01-27T00:35:51.555Z,3.38
2019-01-27T00:35:55.842Z,3.39
2019-01-27T00:36:00.125Z,3.38
2019-01-27T00:36:04.423Z,3.38
2019-01-27T00:36:08.707Z,3.37
2019-01-27T00:36:13.006Z,3.39
2019-01-27T00:36:17.292Z,3.38
2019-01-27T00:36:21.478Z,3.38
2019-01-27T00:36:25.678Z,3.38
2019-01-27T00:36:29.771Z,3.38
2019-01-27T00:36:34.061Z,3.37
2019-01-27T00:36:38.351Z,3.37
2019-01-27T00:36:42.554Z,3.37
2019-01-27T00:36:46.652Z,3.37
2019-01-27T00:36:50.936Z,3.37
2019-01-27T00:36:55.258Z,3.36
2019-01-27T00:36:59.541Z,3.36
2019-01-27T00:37:03.823Z,3.36
2019-01-27T00:37:08.109Z,3.36
2019-01-27T00:37:12.398Z,3.36
2019-01-27T00:37:16.686Z,3.36
2019-01-27T00:37:20.879Z,3.36
2019-01-27T00:37:25.168Z,3.36
2019-01-27T00:37:29.459Z,3.36
2019-01-27T00:37:33.743Z,3.36
2019-01-27T00:37:38.033Z,3.36
2019-01-27T00:37:42.359Z,3.36
2019-01-27T00:37:46.656Z,3.35
2019-01-27T00:37:50.954Z,3.36
2019-01-27T00:37:55.142Z,3.36
2019-01-27T00:37:59.435Z,3.35
2019-01-27T00:38:03.722Z,3.35
2019-01-27T00:38:08.016Z,3.35
2019-01-27T00:38:12.313Z,3.35
2019-01-27T00:38:16.601Z,3.36
2019-01-27T00:38:20.893Z,3.35
2019-01-27T00:38:25.176Z,3.35
2019-01-27T00:38:29.373Z,3.35
2019-01-27T00:38:33.659Z,3.36
2019-01-27T00:38:37.944Z,3.36
2019-01-27T00:38:42.231Z,3.36
2019-01-27T00:38:46.418Z,3.36
2019-01-27T00:38:50.704Z,3.36
2019-01-27T00:38:54.994Z,3.36
2019-01-27T00:38:59.277Z,3.37
2019-01-27T00:39:03.568Z,3.36
2019-01-27T00:39:07.858Z,3.37
2019-01-27T00:39:12.145Z,3.36
2019-01-27T00:39:16.433Z,3.36
2019-01-27T00:39:20.725Z,3.35
2019-01-27T00:39:25.034Z,3.36
2019-01-27T00:39:29.225Z,3.36
2019-01-27T00:39:33.320Z,3.36
2019-01-27T00:39:37.617Z,3.36
2019-01-27T00:39:41.817Z,3.36
2019-01-27T00:39:46.110Z,3.36
2019-01-27T00:39:50.405Z,3.35
2019-01-27T00:39:54.707Z,3.37
2019-01-27T00:39:58.990Z,3.36
2019-01-27T00:40:03.291Z,3.36
2019-01-27T00:40:07.578Z,3.36
2019-01-27T00:40:11.860Z,3.37
2019-01-27T00:40:16.161Z,3.37
2019-01-27T00:40:20.448Z,3.37
2019-01-27T00:40:24.733Z,3.36
2019-01-27T00:40:28.922Z,3.37
2019-01-27T00:40:33.206Z,3.37
2019-01-27T00:40:37.493Z,3.36
2019-01-27T00:40:41.683Z,3.37
2019-01-27T00:40:45.967Z,3.36
2019-01-27T00:40:50.259Z,3.36
2019-01-27T00:40:54.551Z,3.35
2019-01-27T00:40:58.835Z,3.36
2019-01-27T00:41:03.127Z,3.36
2019-01-27T00:41:07.421Z,3.36
2019-01-27T00:41:11.710Z,3.36
2019-01-27T00:41:15.895Z,3.35
2019-01-27T00:41:20.183Z,3.35
2019-01-27T00:41:24.274Z,3.35
2019-01-27T00:41:28.470Z,3.34
2019-01-27T00:41:32.758Z,3.35
2019-01-27T00:41:37.051Z,3.35
2019-01-27T00:41:41.241Z,3.34
2019-01-27T00:41:45.528Z,3.34
2019-01-27T00:41:49.821Z,3.35
2019-01-27T00:41:54.156Z,3.35
2019-01-27T00:41:58.366Z,3.33
2019-01-27T00:42:02.653Z,3.34
2019-01-27T00:42:06.847Z,3.34
2019-01-27T00:42:11.133Z,3.34
2019-01-27T00:42:15.422Z,3.34
2019-01-27T00:42:19.713Z,3.34
2019-01-27T00:42:24.003Z,3.34
2019-01-27T00:42:28.297Z,3.34
2019-01-27T00:42:32.593Z,3.33
2019-01-27T00:42:36.919Z,3.33
2019-01-27T00:42:41.115Z,3.33
2019-01-27T00:42:45.410Z,3.33
2019-01-27T00:42:49.596Z,3.33
2019-01-27T00:42:53.890Z,3.33
2019-01-27T00:42:58.174Z,3.33
2019-01-27T00:43:02.463Z,3.32
2019-01-27T00:43:06.657Z,3.32
2019-01-27T00:43:10.948Z,3.32
2019-01-27T00:43:15.241Z,3.32
2019-01-27T00:43:19.524Z,3.31
2019-01-27T00:43:23.809Z,3.31
2019-01-27T00:43:28.096Z,3.3
2019-01-27T00:43:32.380Z,3.31
2019-01-27T00:43:36.676Z,3.3
2019-01-27T00:43:40.981Z,3.3
2019-01-27T00:43:45.264Z,3.31
2019-01-27T00:43:49.554Z,3.31
2019-01-27T00:43:53.744Z,3.3
2019-01-27T00:43:58.034Z,3.3
2019-01-27T00:44:02.426Z,3.29
2019-01-27T00:44:06.719Z,3.29
2019-01-27T00:44:12.628Z,3.3
2019-01-27T00:44:16.915Z,3.29
2019-01-27T00:44:21.212Z,3.28
2019-01-27T00:44:25.505Z,3.28
2019-01-27T00:44:29.793Z,3.27
2019-01-27T00:44:34.084Z,3.28
2019-01-27T00:44:38.369Z,3.28
2019-01-27T00:44:42.651Z,3.28
2019-01-27T00:44:46.938Z,3.27
2019-01-27T00:44:51.147Z,3.27
2019-01-27T00:44:55.440Z,3.27
2019-01-27T00:44:59.728Z,3.27
2019-01-27T00:45:04.040Z,3.27
2019-01-27T00:45:08.334Z,3.27
2019-01-27T00:45:12.625Z,3.27
2019-01-27T00:45:16.914Z,3.27
2019-01-27T00:45:21.206Z,3.28
2019-01-27T00:45:25.490Z,3.27
2019-01-27T00:45:29.774Z,3.27
2019-01-27T00:45:33.966Z,3.27
2019-01-27T00:45:38.158Z,3.26
2019-01-27T00:45:42.445Z,3.26
2019-01-27T00:45:46.748Z,3.26
2019-01-27T00:45:51.031Z,3.27
2019-01-27T00:45:55.324Z,3.27
2019-01-27T00:45:59.524Z,3.26
2019-01-27T00:46:03.721Z,3.26
2019-01-27T00:46:08.014Z,3.26
2019-01-27T00:46:12.214Z,3.26
2019-01-27T00:46:16.501Z,3.26
2019-01-27T00:46:20.693Z,3.26
2019-01-27T00:46:24.979Z,3.25
2019-01-27T00:46:29.270Z,3.25
2019-01-27T00:46:33.560Z,3.26
2019-01-27T00:46:37.846Z,3.25
2019-01-27T00:46:42.133Z,3.26
2019-01-27T00:46:46.416Z,3.25
2019-01-27T00:46:50.610Z,3.23
2019-01-27T00:46:54.895Z,3.25
2019-01-27T00:46:59.194Z,3.24
2019-01-27T00:47:03.582Z,3.24
2019-01-27T00:47:07.871Z,3.25
2019-01-27T00:47:12.079Z,3.24
2019-01-27T00:47:16.361Z,3.24
2019-01-27T00:47:20.647Z,3.24
2019-01-27T00:47:24.848Z,3.24
2019-01-27T00:47:29.145Z,3.23
2019-01-27T00:47:33.430Z,3.24
2019-01-27T00:47:37.622Z,3.24
2019-01-27T00:47:41.905Z,3.23
2019-01-27T00:47:45.999Z,3.23
2019-01-27T00:47:50.285Z,3.24
2019-01-27T00:47:54.580Z,3.23
2019-01-27T00:47:58.771Z,3.23
2019-01-27T00:48:03.007Z,3.23
2019-01-27T00:48:07.202Z,3.22
2019-01-27T00:48:11.497Z,3.22
2019-01-27T00:48:15.793Z,3.22
2019-01-27T00:48:20.080Z,3.22
2019-01-27T00:48:24.369Z,3.23
2019-01-27T00:48:28.667Z,3.22
2019-01-27T00:48:32.963Z,3.22
2019-01-27T00:48:37.249Z,3.22
2019-01-27T00:48:41.437Z,3.22
2019-01-27T00:48:45.725Z,3.22
2019-01-27T00:48:49.919Z,3.21
2019-01-27T00:48:54.208Z,3.22
2019-01-27T00:48:58.498Z,3.21
2019-01-27T00:49:02.743Z,3.21
2019-01-27T00:49:07.033Z,3.21
2019-01-27T00:49:11.318Z,3.21
2019-01-27T00:49:15.640Z,3.21
2019-01-27T00:49:19.829Z,3.21
2019-01-27T00:49:24.113Z,3.2
2019-01-27T00:49:28.217Z,3.21
2019-01-27T00:49:32.411Z,3.2
2019-01-27T00:49:36.412Z,3.2
2019-01-27T00:49:40.613Z,3.2
2019-01-27T00:49:44.703Z,3.2
2019-01-27T00:49:48.799Z,3.2
2019-01-27T00:49:53.000Z,3.2
2019-01-27T00:49:57.129Z,3.19
2019-01-27T00:50:01.322Z,3.19
2019-01-27T00:50:05.433Z,3.18
2019-01-27T00:50:09.626Z,3.19
2019-01-27T00:50:13.854Z,3.18
2019-01-27T00:50:18.140Z,3.19
2019-01-27T00:50:22.336Z,3.19
2019-01-27T00:50:26.622Z,3.19
2019-01-27T00:50:30.720Z,3.19
2019-01-27T00:50:35.011Z,3.18
2019-01-27T00:50:39.300Z,3.17
2019-01-27T00:50:43.596Z,3.18
2019-01-27T00:50:47.881Z,3.18
2019-01-27T00:50:52.168Z,3.18
2019-01-27T00:50:56.461Z,3.17
2019-01-27T00:51:00.554Z,3.18
2019-01-27T00:51:04.846Z,3.18
2019-01-27T00:51:09.134Z,3.18
2019-01-27T00:51:13.421Z,3.18
2019-01-27T00:51:17.725Z,3.18
2019-01-27T00:51:22.020Z,3.18
2019-01-27T00:51:26.309Z,3.18
2019-01-27T00:51:30.592Z,3.18
2019-01-27T00:51:34.882Z,3.18
2019-01-27T00:51:39.169Z,3.19
2019-01-27T00:51:43.455Z,3.18
2019-01-27T00:51:47.735Z,3.18
2019-01-27T00:51:52.022Z,3.18
2019-01-27T00:51:56.307Z,3.17
2019-01-27T00:52:00.590Z,3.18
2019-01-27T00:52:04.879Z,3.19
2019-01-27T00:52:09.070Z,3.18
2019-01-27T00:52:13.355Z,3.18
2019-01-27T00:52:17.643Z,3.18
2019-01-27T00:52:21.946Z,3.18
2019-01-27T00:52:26.227Z,3.17
2019-01-27T00:52:30.514Z,3.17
2019-01-27T00:52:34.795Z,3.18
2019-01-27T00:52:39.085Z,3.17
2019-01-27T00:52:43.409Z,3.17
2019-01-27T00:52:47.697Z,3.17
2019-01-27T00:52:51.987Z,3.17
2019-01-27T00:52:56.187Z,3.17
2019-01-27T00:53:00.483Z,3.17
2019-01-27T00:53:04.873Z,3.16
2019-01-27T00:53:09.159Z,3.17
2019-01-27T00:53:13.251Z,3.17
2019-01-27T00:53:17.440Z,3.16
2019-01-27T00:53:21.631Z,3.16
2019-01-27T00:53:25.920Z,3.16
2019-01-27T00:53:30.213Z,3.17
2019-01-27T00:53:34.502Z,3.16
2019-01-27T00:53:38.789Z,3.17
2019-01-27T00:53:43.083Z,3.16
2019-01-27T00:53:47.376Z,3.16
2019-01-27T00:53:51.662Z,3.16
2019-01-27T00:53:55.952Z,3.16
2019-01-27T00:54:00.147Z,3.16
2019-01-27T00:54:04.443Z,3.16
2019-01-27T00:54:08.630Z,3.16
2019-01-27T00:54:12.825Z,3.16
2019-01-27T00:54:17.108Z,3.17
2019-01-27T00:54:21.453Z,3.17
2019-01-27T00:54:25.754Z,3.16
2019-01-27T00:54:30.040Z,3.16
2019-01-27T00:54:34.326Z,3.17
2019-01-27T00:54:38.623Z,3.16
2019-01-27T00:54:42.711Z,3.16
2019-01-27T00:54:47.000Z,3.16
2019-01-27T00:54:51.283Z,3.16
2019-01-27T00:54:55.510Z,3.16
2019-01-27T00:54:59.791Z,3.16
2019-01-27T00:55:04.180Z,3.17
2019-01-27T00:55:08.472Z,3.15
2019-01-27T00:55:12.769Z,3.17
2019-01-27T00:55:17.067Z,3.16
2019-01-27T00:55:21.262Z,3.16
2019-01-27T00:55:25.448Z,3.16
2019-01-27T00:55:29.737Z,3.16
2019-01-27T00:55:33.930Z,3.16
2019-01-27T00:55:38.216Z,3.16
2019-01-27T00:55:42.499Z,3.15
2019-01-27T00:55:46.786Z,3.16
2019-01-27T00:55:50.985Z,3.16
2019-01-27T00:55:55.271Z,3.16
2019-01-27T00:55:59.556Z,3.16
2019-01-27T00:56:03.744Z,3.16
2019-01-27T00:56:08.057Z,3.16
2019-01-27T00:56:12.341Z,3.17
2019-01-27T00:56:16.674Z,3.16
2019-01-27T00:56:20.961Z,3.16
2019-01-27T00:56:25.251Z,3.16
2019-01-27T00:56:29.452Z,3.15
2019-01-27T00:56:33.735Z,3.15
2019-01-27T00:56:38.023Z,3.16
2019-01-27T00:56:42.308Z,3.16
2019-01-27T00:56:46.611Z,3.15
2019-01-27T00:56:50.902Z,3.16
2019-01-27T00:56:55.187Z,3.16
2019-01-27T00:56:59.485Z,3.16
2019-01-27T00:57:03.868Z,3.15
2019-01-27T00:57:08.156Z,3.16
2019-01-27T00:57:12.450Z,3.15
2019-01-27T00:57:16.745Z,3.16
2019-01-27T00:57:21.046Z,3.16
2019-01-27T00:57:25.336Z,3.16
2019-01-27T00:57:29.621Z,3.16
2019-01-27T00:57:33.906Z,3.16
2019-01-27T00:57:38.200Z,3.16